createdAt,value
2022-10-22T00:00:07.085Z,13.60
2022-10-22T00:02:34.067Z,12.93
2022-10-22T00:05:01.138Z,13.10
2022-10-22T00:07:28.146Z,13.20
2022-10-22T00:09:55.163Z,12.47
2022-10-22T00:12:22.493Z,14.83
2022-10-22T00:14:49.600Z,12.77
2022-10-22T00:17:19.028Z,11.83
2022-10-22T00:19:45.931Z,12.30
2022-10-22T00:22:13.207Z,13.03
2022-10-22T00:24:41.483Z,12.93
2022-10-22T00:27:10.822Z,14.30
2022-10-22T00:29:37.822Z,12.50
2022-10-22T00:32:05.983Z,13.27
2022-10-22T00:34:33.517Z,14.27
2022-10-22T00:37:00.421Z,12.83
2022-10-22T00:39:28.553Z,12.63
2022-10-22T00:41:57.351Z,12.57
2022-10-22T00:45:07.161Z,13.47
2022-10-22T00:47:43.284Z,13.43
2022-10-22T00:50:21.223Z,13.80
2022-10-22T00:52:49.415Z,12.17
2022-10-22T00:55:17.686Z,12.63
2022-10-22T00:57:44.988Z,12.77
2022-10-22T01:00:12.407Z,13.60
2022-10-22T01:02:39.795Z,12.77
2022-10-22T01:05:07.635Z,13.17
2022-10-22T01:07:42.206Z,13.73
2022-10-22T01:10:21.394Z,14.03
2022-10-22T01:12:57.442Z,12.87
2022-10-22T01:16:08.862Z,13.20
2022-10-22T01:18:45.523Z,13.30
2022-10-22T01:21:34.022Z,13.00
2022-10-22T01:24:19.080Z,13.50
2022-10-22T01:27:24.332Z,13.13
2022-10-22T01:29:57.692Z,13.60
2022-10-22T01:32:26.553Z,12.67
2022-10-22T01:35:04.771Z,13.57
2022-10-22T01:37:36.657Z,14.93
2022-10-22T01:40:05.258Z,13.93
2022-10-22T01:42:32.299Z,14.10
2022-10-22T01:44:59.353Z,14.63
2022-10-22T01:47:42.049Z,13.30
2022-10-22T01:50:34.059Z,13.40
2022-10-22T01:53:13.089Z,12.77
2022-10-22T01:56:05.372Z,13.23
2022-10-22T01:58:58.379Z,13.00
2022-10-22T02:01:40.238Z,13.43
2022-10-22T02:04:42.292Z,12.83
2022-10-22T02:07:13.886Z,12.63
2022-10-22T02:09:41.861Z,13.23
2022-10-22T02:12:10.706Z,14.13
2022-10-22T02:14:41.581Z,12.73
2022-10-22T02:17:13.958Z,12.67
2022-10-22T02:20:03.362Z,12.20
2022-10-22T02:22:30.972Z,12.77
2022-10-22T02:24:57.890Z,12.67
2022-10-22T02:27:29.687Z,14.27
2022-10-22T02:30:11.486Z,12.93
2022-10-22T02:32:54.946Z,12.43
2022-10-22T02:35:24.523Z,13.83
2022-10-22T02:37:53.628Z,13.07
2022-10-22T02:40:21.126Z,13.20
2022-10-22T02:42:49.840Z,12.43
2022-10-22T02:45:18.626Z,12.40
2022-10-22T02:47:45.699Z,11.13
2022-10-22T02:50:12.620Z,11.60
2022-10-22T02:52:39.789Z,10.90
2022-10-22T02:55:07.144Z,11.40
2022-10-22T02:57:34.115Z,11.40
2022-10-22T03:00:01.003Z,11.63
2022-10-22T03:02:27.798Z,10.67
2022-10-22T03:04:54.634Z,10.47
2022-10-22T03:07:22.092Z,12.73
2022-10-22T03:09:48.988Z,12.30
2022-10-22T03:12:15.912Z,12.00
2022-10-22T03:14:42.981Z,12.03
2022-10-22T03:17:10.105Z,11.90
2022-10-22T03:19:36.942Z,12.23
2022-10-22T03:22:13.868Z,12.43
2022-10-22T03:24:46.217Z,11.67
2022-10-22T03:27:16.604Z,12.33
2022-10-22T03:29:44.379Z,11.73
2022-10-22T03:32:13.103Z,12.57
2022-10-22T03:34:40.131Z,13.40
2022-10-22T03:37:07.079Z,12.50
2022-10-22T03:39:36.235Z,13.27
2022-10-22T03:42:04.979Z,13.10
2022-10-22T03:44:32.531Z,14.63
2022-10-22T03:47:02.481Z,13.50
2022-10-22T03:49:29.971Z,13.93
2022-10-22T03:51:57.086Z,12.40
2022-10-22T03:54:24.147Z,13.20
2022-10-22T03:56:50.918Z,14.43
2022-10-22T03:59:18.500Z,14.77
2022-10-22T04:01:45.285Z,13.93
2022-10-22T04:04:12.127Z,14.33
2022-10-22T04:06:39.028Z,15.43
2022-10-22T04:09:05.959Z,14.77
2022-10-22T04:11:33.139Z,13.93
2022-10-22T04:14:00.218Z,14.23
2022-10-22T04:16:31.019Z,13.67
2022-10-22T04:18:58.300Z,15.13
2022-10-22T04:21:25.823Z,15.00
2022-10-22T04:23:53.706Z,14.83
2022-10-22T04:26:21.086Z,15.70
2022-10-22T04:28:49.238Z,14.13
2022-10-22T04:31:24.572Z,15.13
2022-10-22T04:33:59.664Z,15.37
2022-10-22T04:36:28.191Z,15.03
2022-10-22T04:38:57.967Z,13.60
2022-10-22T04:41:27.704Z,14.80
2022-10-22T04:43:56.000Z,15.23
2022-10-22T04:46:24.236Z,14.07
2022-10-22T04:48:52.442Z,16.00
2022-10-22T04:51:21.667Z,14.37
2022-10-22T04:53:48.837Z,14.50
2022-10-22T04:56:21.263Z,14.80
2022-10-22T04:58:49.583Z,16.30
2022-10-22T05:01:19.531Z,14.93
2022-10-22T05:03:48.249Z,15.23
2022-10-22T05:06:16.053Z,15.63
2022-10-22T05:08:43.698Z,15.57
2022-10-22T05:11:22.384Z,14.47
2022-10-22T05:13:49.472Z,14.53
2022-10-22T05:16:16.498Z,14.70
2022-10-22T05:18:44.697Z,14.63
2022-10-22T05:21:14.110Z,13.87
2022-10-22T05:23:41.758Z,14.43
2022-10-22T05:26:10.944Z,14.93
2022-10-22T05:28:38.308Z,14.33
2022-10-22T05:31:06.641Z,13.67
2022-10-22T05:33:34.161Z,13.47
2022-10-22T05:36:03.397Z,13.77
2022-10-22T05:38:30.274Z,14.47
2022-10-22T05:41:21.657Z,14.83
2022-10-22T05:43:48.583Z,14.60
2022-10-22T05:46:22.725Z,13.40
2022-10-22T05:48:54.964Z,13.47
2022-10-22T05:51:24.267Z,12.90
2022-10-22T05:53:54.393Z,13.93
2022-10-22T05:56:22.501Z,13.67
2022-10-22T05:58:50.651Z,15.20
2022-10-22T06:01:25.046Z,13.63
2022-10-22T06:03:58.782Z,12.73
2022-10-22T06:06:38.110Z,14.13
2022-10-22T06:09:13.512Z,13.60
2022-10-22T06:11:41.395Z,14.43
2022-10-22T06:14:09.380Z,13.87
2022-10-22T06:16:36.243Z,13.27
2022-10-22T06:19:03.276Z,12.43
2022-10-22T06:21:31.412Z,13.77
2022-10-22T06:23:59.964Z,12.47
2022-10-22T06:26:27.165Z,14.00
2022-10-22T06:28:56.047Z,14.17
2022-10-22T06:31:25.625Z,13.03
2022-10-22T06:33:53.262Z,12.60
2022-10-22T06:36:23.689Z,13.27
2022-10-22T06:38:55.288Z,12.10
2022-10-22T06:41:25.652Z,12.07
2022-10-22T06:43:57.327Z,12.90
2022-10-22T06:46:25.590Z,12.30
2022-10-22T06:48:57.621Z,13.27
2022-10-22T06:51:26.135Z,13.30
2022-10-22T06:53:54.513Z,13.23
2022-10-22T06:56:24.088Z,12.90
2022-10-22T06:58:52.191Z,13.10
2022-10-22T07:01:21.889Z,13.13
2022-10-22T07:03:51.396Z,13.53
2022-10-22T07:06:18.924Z,12.50
2022-10-22T07:08:45.682Z,11.80
2022-10-22T07:11:18.584Z,12.50
2022-10-22T07:13:46.402Z,12.03
2022-10-22T07:16:14.543Z,11.80
2022-10-22T07:18:42.515Z,12.17
2022-10-22T07:21:10.642Z,13.63
2022-10-22T07:23:37.860Z,12.03
2022-10-22T07:26:07.467Z,11.63
2022-10-22T07:28:39.790Z,12.67
2022-10-22T07:31:08.248Z,12.40
2022-10-22T07:33:35.511Z,12.27
2022-10-22T07:36:05.548Z,11.47
2022-10-22T07:38:32.673Z,12.97
2022-10-22T07:40:59.975Z,12.40
2022-10-22T07:43:26.987Z,14.47
2022-10-22T07:45:55.883Z,13.03
2022-10-22T07:48:23.868Z,13.57
2022-10-22T07:50:51.973Z,14.03
2022-10-22T07:53:18.780Z,12.90
2022-10-22T07:55:51.523Z,13.53
2022-10-22T07:58:19.565Z,14.63
2022-10-22T08:00:46.924Z,14.80
2022-10-22T08:03:14.970Z,14.40
2022-10-22T08:05:43.821Z,15.20
2022-10-22T08:08:12.169Z,14.47
2022-10-22T08:10:39.240Z,13.20
2022-10-22T08:13:07.148Z,13.70
2022-10-22T08:15:34.404Z,13.07
2022-10-22T08:18:01.334Z,13.63
2022-10-22T08:20:28.450Z,13.33
2022-10-22T08:22:55.258Z,14.23
2022-10-22T08:25:22.554Z,14.10
2022-10-22T08:27:49.390Z,16.00
2022-10-22T08:30:16.758Z,13.90
2022-10-22T08:32:43.743Z,13.13
2022-10-22T08:35:14.077Z,13.93
2022-10-22T08:37:43.939Z,14.63
2022-10-22T08:40:23.113Z,13.87
2022-10-22T08:43:11.709Z,13.77
2022-10-22T08:46:07.107Z,13.33
2022-10-22T08:48:48.339Z,13.07
2022-10-22T08:51:30.495Z,12.90
2022-10-22T08:54:09.020Z,13.00
2022-10-22T08:56:38.179Z,13.80
2022-10-22T08:59:21.363Z,13.17
2022-10-22T09:01:51.452Z,13.23
2022-10-22T09:04:36.392Z,12.80
2022-10-22T09:07:03.374Z,13.33
2022-10-22T09:09:36.879Z,13.50
2022-10-22T09:12:05.178Z,13.80
2022-10-22T09:14:32.198Z,13.23
2022-10-22T09:17:02.089Z,14.27
2022-10-22T09:19:41.200Z,15.27
2022-10-22T09:25:17.493Z,13.90
2022-10-22T09:27:44.578Z,15.00
2022-10-22T09:30:24.037Z,15.53
2022-10-22T09:33:22.620Z,14.63
2022-10-22T09:36:06.891Z,15.17
2022-10-22T09:38:40.097Z,13.75
2022-10-22T09:41:09.054Z,14.00
2022-10-22T09:43:36.474Z,15.90
2022-10-22T09:46:06.964Z,16.67
2022-10-22T09:48:41.225Z,15.20
2022-10-22T09:51:23.315Z,16.20
2022-10-22T09:54:02.023Z,14.98
2022-10-22T09:56:41.709Z,15.63
2022-10-22T09:59:17.038Z,14.38
2022-10-22T10:01:47.504Z,15.00
2022-10-22T10:04:16.137Z,15.88
2022-10-22T10:06:45.205Z,15.05
2022-10-22T10:09:21.238Z,14.93
2022-10-22T10:12:14.498Z,14.32
2022-10-22T10:15:23.454Z,14.73
2022-10-22T10:17:50.433Z,14.20
2022-10-22T10:20:39.144Z,15.70
2022-10-22T10:23:34.589Z,14.15
2022-10-22T10:26:10.154Z,15.45
2022-10-22T10:29:03.434Z,16.40
2022-10-22T10:31:45.266Z,16.40
2022-10-22T10:34:12.242Z,17.33
2022-10-22T10:37:04.630Z,15.20
2022-10-22T10:39:39.430Z,15.60
2022-10-22T10:42:20.657Z,15.55
2022-10-22T10:45:17.191Z,15.98
2022-10-22T10:48:09.949Z,15.45
2022-10-22T10:51:18.297Z,17.05
2022-10-22T10:54:03.514Z,15.93
2022-10-22T10:56:49.530Z,17.00
2022-10-22T10:59:54.686Z,18.10
2022-10-22T11:02:46.272Z,17.25
2022-10-22T11:05:52.919Z,16.70
2022-10-22T11:08:22.705Z,20.80
2022-10-22T11:11:08.421Z,19.52
2022-10-22T11:13:44.941Z,19.42
2022-10-22T11:16:32.734Z,19.85
2022-10-22T11:19:22.581Z,22.10
2022-10-22T11:22:16.132Z,21.50
2022-10-22T11:25:04.467Z,20.13
2022-10-22T11:27:42.438Z,18.65
2022-10-22T11:30:17.393Z,19.33
2022-10-22T11:32:48.663Z,19.15
2022-10-22T11:35:28.175Z,18.55
2022-10-22T11:37:57.242Z,17.90
2022-10-22T11:40:29.842Z,18.55
2022-10-22T11:43:07.201Z,19.38
2022-10-22T11:45:39.751Z,19.02
2022-10-22T11:48:27.412Z,19.20
2022-10-22T11:51:00.974Z,19.15
2022-10-22T11:53:34.761Z,19.02
2022-10-22T11:56:07.683Z,18.85
2022-10-22T11:58:39.345Z,19.63
2022-10-22T12:01:09.179Z,19.48
2022-10-22T12:03:41.017Z,18.40
2022-10-22T12:06:15.701Z,18.83
2022-10-22T12:08:47.161Z,19.17
2022-10-22T12:11:19.127Z,18.88
2022-10-22T12:14:02.176Z,18.33
2022-10-22T12:16:55.722Z,21.00
2022-10-22T12:19:23.183Z,19.87
2022-10-22T12:22:14.237Z,20.52
2022-10-22T12:24:44.902Z,21.13
2022-10-22T12:27:27.548Z,19.50
2022-10-22T12:29:57.039Z,18.67
2022-10-22T12:32:24.663Z,19.52
2022-10-22T12:34:52.839Z,18.83
2022-10-22T12:37:20.519Z,18.10
2022-10-22T12:39:47.445Z,18.23
2022-10-22T12:42:16.400Z,19.10
2022-10-22T12:44:46.313Z,19.65
2022-10-22T12:47:17.818Z,18.23
2022-10-22T12:49:48.595Z,19.13
2022-10-22T12:52:21.527Z,19.58
2022-10-22T12:54:52.573Z,19.08
2022-10-22T12:57:21.168Z,19.00
2022-10-22T12:59:51.439Z,21.55
2022-10-22T13:02:25.242Z,19.87
2022-10-22T13:05:13.951Z,21.23
2022-10-22T13:07:44.206Z,21.45
2022-10-22T13:10:20.671Z,22.73
2022-10-22T13:12:51.906Z,20.52
2022-10-22T13:15:20.534Z,21.73
2022-10-22T13:17:48.714Z,22.08
2022-10-22T13:20:24.591Z,21.10
2022-10-22T13:23:00.262Z,23.73
2022-10-22T13:25:30.411Z,22.65
2022-10-22T13:28:01.630Z,21.77
2022-10-22T13:30:32.564Z,23.35
2022-10-22T13:33:04.863Z,24.80
2022-10-22T13:35:34.554Z,21.65
2022-10-22T13:38:02.013Z,22.33
2022-10-22T13:40:28.907Z,23.30
2022-10-22T13:42:55.685Z,21.87
2022-10-22T13:45:22.633Z,21.48
2022-10-22T13:47:52.475Z,22.00
2022-10-22T13:50:21.162Z,21.75
2022-10-22T13:52:56.670Z,22.37
2022-10-22T13:55:27.199Z,20.65
2022-10-22T13:58:11.143Z,22.67
2022-10-22T14:00:44.042Z,21.52
2022-10-22T14:03:14.240Z,22.07
2022-10-22T14:05:41.714Z,21.35
2022-10-22T14:08:18.321Z,19.85
2022-10-22T14:10:45.210Z,21.52
2022-10-22T14:13:13.411Z,22.98
2022-10-22T14:15:41.072Z,22.38
2022-10-22T14:18:09.262Z,25.30
2022-10-22T14:20:37.874Z,23.70
2022-10-22T14:23:19.703Z,23.88
2022-10-22T14:25:46.804Z,22.75
2022-10-22T14:28:13.847Z,24.55
2022-10-22T14:30:41.260Z,25.87
2022-10-22T14:33:18.639Z,26.88
2022-10-22T14:35:47.419Z,24.33
2022-10-22T14:38:14.571Z,25.98
2022-10-22T14:40:42.991Z,25.77
2022-10-22T14:43:22.742Z,25.13
2022-10-22T14:45:50.005Z,25.23
2022-10-22T14:48:17.147Z,26.17
2022-10-22T14:50:45.598Z,26.88
2022-10-22T14:53:13.739Z,24.73
2022-10-22T14:55:41.270Z,28.53
2022-10-22T14:58:08.127Z,27.63
2022-10-22T15:00:36.884Z,25.55
2022-10-22T15:03:04.489Z,26.67
2022-10-22T15:05:31.612Z,28.63
2022-10-22T15:07:59.393Z,27.98
2022-10-22T15:10:26.808Z,26.40
2022-10-22T15:12:53.556Z,26.73
2022-10-22T15:15:22.717Z,29.25
2022-10-22T15:17:50.062Z,30.87
2022-10-22T15:20:16.947Z,29.60
2022-10-22T15:22:44.210Z,29.63
2022-10-22T15:25:13.754Z,30.20
2022-10-22T15:27:40.542Z,30.75
2022-10-22T15:30:08.359Z,29.52
2022-10-22T15:32:35.191Z,30.23
2022-10-22T15:35:02.445Z,28.42
2022-10-22T15:37:29.174Z,29.63
2022-10-22T15:39:56.010Z,30.07
2022-10-22T15:42:23.896Z,30.27
2022-10-22T15:44:58.009Z,30.07
2022-10-22T15:47:29.754Z,28.87
2022-10-22T15:49:56.700Z,34.20
2022-10-22T15:52:23.717Z,31.90
2022-10-22T15:54:50.500Z,37.87
2022-10-22T15:57:17.341Z,37.00
2022-10-22T15:59:44.256Z,38.57
2022-10-22T16:02:11.619Z,37.83
2022-10-22T16:04:39.043Z,37.17
2022-10-22T16:07:05.891Z,40.00
2022-10-22T16:09:32.651Z,42.03
2022-10-22T16:11:59.515Z,43.33
2022-10-22T16:14:28.644Z,44.10
2022-10-22T16:16:56.240Z,42.20
2022-10-22T16:19:24.582Z,42.40
2022-10-22T16:21:53.268Z,44.03
2022-10-22T16:24:21.195Z,43.87
2022-10-22T16:26:48.865Z,43.97
2022-10-22T16:29:15.795Z,48.88
2022-10-22T16:31:43.983Z,45.60
2022-10-22T16:34:11.231Z,42.53
2022-10-22T16:36:38.871Z,41.60
2022-10-22T16:39:06.712Z,35.57
2022-10-22T16:41:36.717Z,32.63
2022-10-22T16:44:06.531Z,34.10
2022-10-22T16:46:36.762Z,33.45
2022-10-22T16:49:03.732Z,32.63
2022-10-22T16:51:30.794Z,35.70
2022-10-22T16:53:58.325Z,35.80
2022-10-22T16:56:25.775Z,37.67
2022-10-22T16:58:55.171Z,37.43
2022-10-22T17:01:24.315Z,36.35
2022-10-22T17:03:51.253Z,38.37
2022-10-22T17:06:18.074Z,37.37
2022-10-22T17:08:45.055Z,38.07
2022-10-22T17:11:17.921Z,37.37
2022-10-22T17:13:49.751Z,39.20
2022-10-22T17:16:18.310Z,41.40
2022-10-22T17:21:19.069Z,37.70
2022-10-22T17:23:47.046Z,37.97
2022-10-22T17:26:21.003Z,40.13
2022-10-22T17:28:48.717Z,37.17
2022-10-22T17:31:19.105Z,37.55
2022-10-22T17:33:46.735Z,38.60
2022-10-22T17:36:13.875Z,40.30
2022-10-22T17:38:42.489Z,40.30
2022-10-22T17:41:17.429Z,40.97
2022-10-22T17:46:21.535Z,40.37
2022-10-22T17:48:56.197Z,39.57
2022-10-22T17:51:25.022Z,40.05
2022-10-22T17:53:51.994Z,42.25
2022-10-22T17:56:32.303Z,40.43
2022-10-22T17:59:01.681Z,41.67
2022-10-22T18:01:31.552Z,41.87
2022-10-22T18:04:07.984Z,41.40
2022-10-22T18:06:35.715Z,42.13
2022-10-22T18:09:07.706Z,42.43
2022-10-22T18:11:36.521Z,41.43
2022-10-22T18:14:04.520Z,43.80
2022-10-22T18:16:31.668Z,43.30
2022-10-22T18:18:59.255Z,39.67
2022-10-22T18:21:28.574Z,42.67
2022-10-22T18:23:55.901Z,41.80
2022-10-22T18:26:25.986Z,42.93
2022-10-22T18:28:54.807Z,41.90
2022-10-22T18:31:23.554Z,39.80
2022-10-22T18:33:50.768Z,42.33
2022-10-22T18:36:20.824Z,39.40
2022-10-22T18:38:55.806Z,40.60
2022-10-22T18:41:23.086Z,40.23
2022-10-22T18:43:51.541Z,44.80
2022-10-22T18:46:18.926Z,40.70
2022-10-22T18:48:47.038Z,41.75
2022-10-22T18:51:15.066Z,37.88
2022-10-22T18:53:42.394Z,40.95
2022-10-22T18:56:13.390Z,39.57
2022-10-22T18:58:41.912Z,37.03
2022-10-22T19:01:17.966Z,34.77
2022-10-22T19:03:45.711Z,32.70
2022-10-22T19:06:24.379Z,32.00
2022-10-22T19:08:51.526Z,28.37
2022-10-22T19:11:18.407Z,26.73
2022-10-22T19:13:45.248Z,26.07
2022-10-22T19:16:18.463Z,27.43
2022-10-22T19:18:45.568Z,26.93
2022-10-22T19:21:12.452Z,26.27
2022-10-22T19:23:39.260Z,23.63
2022-10-22T19:26:07.765Z,21.83
2022-10-22T19:28:34.554Z,25.42
2022-10-22T19:31:01.440Z,23.80
2022-10-22T19:33:28.237Z,23.05
2022-10-22T19:35:55.022Z,23.40
2022-10-22T19:38:23.434Z,24.38
2022-10-22T19:40:51.331Z,23.77
2022-10-22T19:43:18.948Z,21.77
2022-10-22T19:45:45.884Z,21.83
2022-10-22T19:48:12.624Z,22.00
2022-10-22T19:50:39.417Z,21.65
2022-10-22T19:53:06.131Z,20.57
2022-10-22T19:55:32.919Z,21.53
2022-10-22T19:57:59.676Z,20.80
2022-10-22T20:00:28.359Z,22.52
2022-10-22T20:02:55.427Z,22.63
2022-10-22T20:07:49.794Z,20.98
2022-10-22T20:10:16.637Z,20.83
2022-10-22T20:12:43.403Z,20.55
2022-10-22T20:15:10.421Z,19.70
2022-10-22T20:17:37.182Z,21.53
2022-10-22T20:20:04.288Z,20.77
2022-10-22T20:22:31.103Z,20.02
2022-10-22T20:24:57.885Z,19.53
2022-10-22T20:27:24.694Z,20.10
2022-10-22T20:29:51.493Z,18.93
2022-10-22T20:32:18.223Z,21.77
2022-10-22T20:34:44.984Z,23.00
2022-10-22T20:37:11.730Z,20.70
2022-10-22T20:39:38.486Z,21.65
2022-10-22T20:42:05.366Z,20.13
2022-10-22T20:44:32.250Z,22.53
2022-10-22T20:46:59.272Z,21.87
2022-10-22T20:49:26.774Z,23.20
2022-10-22T20:51:53.698Z,20.93
2022-10-22T20:54:20.793Z,21.45
2022-10-22T20:56:48.111Z,22.17
2022-10-22T20:59:15.366Z,13.13
2022-10-22T21:01:47.741Z,22.10
2022-10-22T21:04:15.929Z,19.73
2022-10-22T21:06:43.148Z,22.57
2022-10-22T21:09:12.679Z,21.30
2022-10-22T21:11:41.511Z,21.47
2022-10-22T21:14:09.966Z,22.17
2022-10-22T21:16:46.885Z,20.47
2022-10-22T21:19:13.671Z,15.57
2022-10-22T21:21:40.584Z,21.57
2022-10-22T21:24:08.576Z,21.37
2022-10-22T21:26:40.200Z,21.17
2022-10-22T21:29:08.279Z,16.43
2022-10-22T21:31:35.711Z,19.70
2022-10-22T21:34:02.812Z,15.45
2022-10-22T21:36:29.577Z,21.88
2022-10-22T21:38:56.575Z,18.77
2022-10-22T21:41:24.344Z,20.05
2022-10-22T21:43:51.912Z,20.10
2022-10-22T21:46:23.996Z,18.30
2022-10-22T21:48:55.448Z,15.45
2022-10-22T21:51:23.796Z,15.65
2022-10-22T21:56:29.358Z,19.23
2022-10-22T21:58:56.539Z,12.60
2022-10-22T22:01:23.503Z,18.03
2022-10-22T22:03:51.300Z,14.83
2022-10-22T22:06:21.783Z,17.80
2022-10-22T22:08:50.001Z,14.07
2022-10-22T22:11:19.474Z,17.70
2022-10-22T22:13:48.703Z,14.07
2022-10-22T22:16:23.948Z,17.40
2022-10-22T22:18:54.389Z,19.60
2022-10-22T22:21:22.432Z,21.43
2022-10-22T22:23:50.844Z,20.73
2022-10-22T22:26:25.226Z,19.15
2022-10-22T22:28:55.842Z,18.83
2022-10-22T22:31:25.218Z,15.57
2022-10-22T22:33:57.915Z,21.07
2022-10-22T22:36:24.804Z,21.03
2022-10-22T22:38:55.858Z,17.23
2022-10-22T22:41:23.201Z,19.47
2022-10-22T22:43:50.816Z,19.30
2022-10-22T22:46:18.001Z,19.17
2022-10-22T22:48:49.249Z,16.23
2022-10-22T22:51:16.671Z,19.00
2022-10-22T22:53:43.737Z,19.07
2022-10-22T22:56:13.934Z,14.93
2022-10-22T22:58:41.517Z,18.90
2022-10-22T23:01:19.004Z,20.65
2022-10-22T23:03:48.243Z,17.83
2022-10-22T23:06:16.469Z,19.08
2022-10-22T23:08:43.719Z,15.93
2022-10-22T23:11:13.422Z,17.65
2022-10-22T23:13:41.884Z,18.13
2022-10-22T23:16:19.057Z,17.65
2022-10-22T23:18:47.869Z,17.47
2022-10-22T23:21:17.735Z,17.88
2022-10-22T23:23:51.357Z,17.83
2022-10-22T23:26:32.807Z,18.33
2022-10-22T23:29:04.577Z,17.60
2022-10-22T23:31:31.616Z,16.40
2022-10-22T23:33:58.920Z,15.30
2022-10-22T23:36:26.477Z,16.70
2022-10-22T23:38:54.270Z,15.63
2022-10-22T23:41:21.790Z,16.23
2022-10-22T23:43:50.255Z,16.67
2022-10-22T23:46:17.461Z,16.60
2022-10-22T23:48:44.379Z,17.77
2022-10-22T23:51:14.089Z,16.90
2022-10-22T23:53:42.515Z,18.13
2022-10-22T23:56:12.653Z,15.50
2022-10-22T23:58:40.155Z,16.93
